Time;durP1;ratioP1;P1;durP2;ratioP2;P2;SDS_P1;SDS_P2;PMS_P1;PMS_P2;Temp;Humidity;BMP_temperature;BMP_pressure;BME280_temperature;BME280_humidity;BME280_pressure;Samples;Min_cycle;Max_cycle;Signal;HPM_P1;HPM_P2
2022/10/22 00:00:32;;;;;;;14.70;3.60;;;15.30;99.90;;;;;;5105007;28;20066;-74
2022/10/22 00:02:58;;;;;;;14.27;3.30;;;15.30;99.90;;;;;;5100831;28;20047;-73
2022/10/22 00:05:24;;;;;;;10.65;3.13;;;15.30;99.90;;;;;;5109241;28;20149;-73
2022/10/22 00:07:49;;;;;;;11.25;3.20;;;15.30;99.90;;;;;;5109862;28;20019;-74
2022/10/22 00:10:16;;;;;;;13.15;3.70;;;15.20;99.90;;;;;;5109536;28;20132;-73
2022/10/22 00:12:42;;;;;;;11.68;3.67;;;15.20;99.90;;;;;;5110741;28;20375;-73
2022/10/22 00:15:09;;;;;;;11.45;3.33;;;15.10;99.90;;;;;;5097468;28;20162;-73
2022/10/22 00:17:35;;;;;;;13.50;4.00;;;15.10;99.90;;;;;;5103769;28;20028;-74
2022/10/22 00:20:00;;;;;;;14.45;3.67;;;15.00;99.90;;;;;;5101593;28;20042;-73
2022/10/22 00:22:26;;;;;;;8.68;3.30;;;15.00;99.90;;;;;;5109504;28;20020;-73
2022/10/22 00:24:52;;;;;;;14.68;3.72;;;15.00;99.90;;;;;;5110208;28;20431;-73
2022/10/22 00:27:17;;;;;;;11.43;3.25;;;15.00;99.90;;;;;;5109089;28;20027;-73
2022/10/22 00:29:43;;;;;;;18.20;4.15;;;15.00;99.90;;;;;;5095326;28;20073;-74
2022/10/22 00:32:08;;;;;;;10.23;3.00;;;15.00;99.90;;;;;;5097199;28;20459;-73
2022/10/22 00:34:34;;;;;;;12.10;3.53;;;15.00;99.90;;;;;;5108336;28;20028;-73
2022/10/22 00:36:59;;;;;;;9.50;3.22;;;15.00;99.90;;;;;;5095160;28;20039;-73
2022/10/22 00:39:26;;;;;;;14.63;3.53;;;15.00;99.90;;;;;;5102126;28;20021;-73
2022/10/22 00:41:53;;;;;;;14.48;3.80;;;15.00;99.90;;;;;;5104169;28;20119;-73
2022/10/22 00:44:56;;;;;;;10.23;3.25;;;15.00;99.90;;;;;;5095156;28;20458;-74
2022/10/22 00:47:24;;;;;;;13.43;3.85;;;15.00;99.90;;;;;;5109041;28;20503;-73
2022/10/22 00:49:52;;;;;;;12.88;3.22;;;15.00;99.90;;;;;;5109887;28;20071;-73
2022/10/22 00:52:18;;;;;;;10.18;3.15;;;15.10;99.90;;;;;;5109194;28;20129;-73
2022/10/22 00:54:44;;;;;;;14.98;2.90;;;15.10;99.90;;;;;;5109419;28;20035;-74
2022/10/22 00:57:10;;;;;;;11.10;3.22;;;15.20;99.90;;;;;;5110191;28;20036;-73
2022/10/22 00:59:36;;;;;;;11.93;3.15;;;15.30;99.90;;;;;;5108197;28;20030;-73
2022/10/22 01:02:02;;;;;;;12.73;3.15;;;15.40;99.90;;;;;;5095830;28;20789;-73
2022/10/22 01:04:28;;;;;;;12.70;3.08;;;15.50;99.90;;;;;;5113664;28;20034;-73
2022/10/22 01:06:54;;;;;;;11.95;3.25;;;15.50;99.90;;;;;;5093906;28;20020;-73
2022/10/22 01:09:28;;;;;;;12.10;3.03;;;15.60;99.90;;;;;;5112510;28;20023;-73
2022/10/22 01:12:18;;;;;;;14.38;3.03;;;15.60;99.90;;;;;;5080338;28;20522;-74
2022/10/22 01:15:06;;;;;;;13.05;3.10;;;15.70;99.90;;;;;;5101679;28;20387;-74
2022/10/22 01:18:09;;;;;;;13.30;3.33;;;15.70;99.90;;;;;;5108380;28;20036;-73
2022/10/22 01:21:03;;;;;;;11.63;2.90;;;15.70;99.90;;;;;;5113191;28;20114;-74
2022/10/22 01:24:02;;;;;;;12.88;3.03;;;15.80;99.90;;;;;;5085636;28;20024;-73
2022/10/22 01:26:55;;;;;;;11.27;2.90;;;15.80;99.90;;;;;;5106800;28;20032;-73
2022/10/22 01:29:31;;;;;;;11.80;2.85;;;15.80;99.90;;;;;;5108214;28;20384;-73
2022/10/22 01:32:00;;;;;;;11.95;3.25;;;15.80;99.90;;;;;;5098989;28;20031;-73
2022/10/22 01:34:28;;;;;;;17.58;3.38;;;15.80;99.90;;;;;;5092613;28;20449;-73
2022/10/22 01:36:55;;;;;;;13.15;3.08;;;15.80;99.90;;;;;;5092688;28;20383;-73
2022/10/22 01:39:22;;;;;;;14.23;3.33;;;15.70;99.90;;;;;;5101969;28;20027;-73
2022/10/22 01:41:48;;;;;;;12.13;3.10;;;15.70;99.90;;;;;;5092809;28;20020;-74
2022/10/22 01:44:23;;;;;;;10.98;3.33;;;15.70;99.90;;;;;;5105532;28;20030;-74
2022/10/22 01:46:51;;;;;;;;;;;15.70;99.90;;;;;;5100900;28;20053;-73
2022/10/22 01:49:26;;;;;;;13.82;3.25;;;15.60;99.90;;;;;;5097036;28;19904;-73
2022/10/22 01:52:33;;;;;;;15.88;3.45;;;15.60;99.90;;;;;;5099853;28;20423;-74
2022/10/22 01:55:06;;;;;;;10.25;3.45;;;15.50;99.90;;;;;;5093250;28;20494;-75
2022/10/22 01:57:57;;;;;;;14.40;3.55;;;15.50;99.90;;;;;;5112351;28;20034;-73
2022/10/22 02:00:23;;;;;;;11.05;3.42;;;15.50;99.90;;;;;;5112605;28;20383;-73
2022/10/22 02:03:17;;;;;;;17.30;3.63;;;15.40;99.90;;;;;;5111449;28;20903;-71
2022/10/22 02:05:58;;;;;;;16.30;3.40;;;15.40;99.90;;;;;;5094187;28;20811;-73
2022/10/22 02:08:28;;;;;;;16.25;4.03;;;15.30;99.90;;;;;;5093251;28;20035;-73
2022/10/22 02:10:55;;;;;;;12.90;3.55;;;15.30;99.90;;;;;;5091606;28;20102;-73
2022/10/22 02:13:26;;;;;;;13.05;3.78;;;15.20;99.90;;;;;;5086979;28;20030;-74
2022/10/22 02:15:54;;;;;;;14.00;4.00;;;15.20;99.90;;;;;;5100139;28;20031;-73
2022/10/22 02:18:23;;;;;;;11.48;4.05;;;15.20;99.90;;;;;;5108972;28;20007;-73
2022/10/22 02:20:49;;;;;;;16.38;4.05;;;15.10;99.90;;;;;;5112509;28;20111;-74
2022/10/22 02:23:15;;;;;;;15.35;3.72;;;15.10;99.90;;;;;;5108019;28;20153;-73
2022/10/22 02:25:46;;;;;;;14.32;3.42;;;15.10;99.90;;;;;;5090724;28;20032;-74
2022/10/22 02:28:28;;;;;;;12.52;3.22;;;15.00;99.90;;;;;;5091469;28;20034;-73
2022/10/22 02:30:58;;;;;;;12.90;3.25;;;15.00;99.90;;;;;;5101975;28;20032;-74
2022/10/22 02:33:37;;;;;;;12.82;3.70;;;15.00;99.90;;;;;;5110860;28;20028;-74
2022/10/22 02:36:05;;;;;;;14.02;3.42;;;15.00;99.90;;;;;;5106725;28;20019;-73
2022/10/22 02:38:32;;;;;;;13.55;3.70;;;14.90;99.90;;;;;;5090584;28;20123;-73
2022/10/22 02:40:58;;;;;;;12.65;3.13;;;14.90;99.90;;;;;;5110071;28;20047;-74
2022/10/22 02:43:24;;;;;;;13.95;3.13;;;14.90;99.90;;;;;;5102810;28;20051;-73
2022/10/22 02:45:50;;;;;;;15.10;3.42;;;14.90;99.90;;;;;;5103661;28;20211;-71
2022/10/22 02:48:16;;;;;;;9.38;3.10;;;14.90;99.90;;;;;;5097977;28;20035;-71
2022/10/22 02:50:41;;;;;;;11.45;3.50;;;14.80;99.90;;;;;;5098583;28;20474;-74
2022/10/22 02:53:07;;;;;;;10.93;3.30;;;14.90;99.90;;;;;;5108209;28;20403;-73
2022/10/22 02:55:32;;;;;;;18.30;3.63;;;14.90;99.90;;;;;;5088792;28;20020;-73
2022/10/22 02:57:58;;;;;;;13.48;3.20;;;14.90;99.90;;;;;;5103738;28;20031;-74
2022/10/22 03:00:23;;;;;;;11.73;3.13;;;14.80;99.90;;;;;;5110609;28;20020;-74
2022/10/22 03:02:49;;;;;;;13.13;3.40;;;14.90;99.90;;;;;;5111758;28;20047;-73
2022/10/22 03:05:15;;;;;;;10.98;3.30;;;14.80;99.90;;;;;;5109850;28;20110;-74
2022/10/22 03:07:40;;;;;;;16.60;3.40;;;14.90;99.90;;;;;;5111133;28;20083;-74
2022/10/22 03:10:06;;;;;;;13.75;3.50;;;14.80;99.90;;;;;;5109964;28;20511;-74
2022/10/22 03:12:32;;;;;;;14.10;3.38;;;14.80;99.90;;;;;;5110308;28;20020;-74
2022/10/22 03:14:57;;;;;;;12.90;2.78;;;14.80;99.90;;;;;;5096374;28;20046;-74
2022/10/22 03:17:23;;;;;;;10.30;2.95;;;14.80;99.90;;;;;;5109814;28;20059;-73
2022/10/22 03:19:48;;;;;;;10.70;2.92;;;14.80;99.90;;;;;;5109470;28;20024;-74
2022/10/22 03:22:22;;;;;;;15.02;3.20;;;14.90;99.90;;;;;;5106408;28;20515;-73
2022/10/22 03:24:51;;;;;;;16.48;3.38;;;14.90;99.90;;;;;;5100263;28;20027;-73
2022/10/22 03:27:18;;;;;;;11.82;3.03;;;14.90;99.90;;;;;;5107223;28;20085;-74
2022/10/22 03:29:45;;;;;;;16.25;3.30;;;14.90;99.90;;;;;;5092135;28;20023;-73
2022/10/22 03:32:12;;;;;;;19.27;3.45;;;14.90;99.90;;;;;;5110014;28;20484;-74
2022/10/22 03:34:38;;;;;;;13.95;2.88;;;14.90;99.90;;;;;;5110436;28;20077;-74
2022/10/22 03:37:03;;;;;;;9.90;3.17;;;14.90;99.90;;;;;;5110521;28;20028;-76
2022/10/22 03:39:32;;;;;;;10.82;3.20;;;14.90;99.90;;;;;;5103068;28;20055;-73
2022/10/22 03:41:57;;;;;;;11.55;2.97;;;14.90;99.90;;;;;;5089495;28;20024;-73
2022/10/22 03:44:23;;;;;;;12.02;3.42;;;14.90;99.90;;;;;;5090283;28;20399;-74
2022/10/22 03:46:49;;;;;;;9.90;3.10;;;14.90;99.90;;;;;;5110172;28;20051;-73
2022/10/22 03:49:15;;;;;;;16.70;3.47;;;14.90;99.90;;;;;;5090732;28;20050;-74
2022/10/22 03:51:40;;;;;;;14.15;3.42;;;14.90;99.90;;;;;;5104605;28;20116;-73
2022/10/22 03:54:06;;;;;;;12.48;2.95;;;14.90;99.90;;;;;;5097882;28;20032;-74
2022/10/22 03:56:32;;;;;;;12.27;3.25;;;15.00;99.90;;;;;;5107907;28;20012;-74
2022/10/22 03:58:59;;;;;;;10.25;2.75;;;15.00;99.90;;;;;;5109908;28;20049;-73
2022/10/22 04:01:25;;;;;;;15.52;3.30;;;15.00;99.90;;;;;;5108802;28;20050;-74
2022/10/22 04:03:51;;;;;;;19.02;3.40;;;15.00;99.90;;;;;;5110325;28;20051;-74
2022/10/22 04:06:17;;;;;;;10.15;3.03;;;15.00;99.90;;;;;;5109301;28;20089;-75
2022/10/22 04:08:44;;;;;;;10.50;2.85;;;14.90;99.90;;;;;;5110382;28;20059;-74
2022/10/22 04:11:11;;;;;;;16.17;3.35;;;14.90;99.90;;;;;;5096436;28;20348;-73
2022/10/22 04:13:37;;;;;;;14.88;3.13;;;14.90;99.90;;;;;;5108853;28;20111;-73
2022/10/22 04:16:17;;;;;;;13.30;2.90;;;14.90;99.90;;;;;;5110397;28;20103;-73
2022/10/22 04:18:44;;;;;;;11.82;2.80;;;14.90;99.90;;;;;;5106792;28;20052;-73
2022/10/22 04:21:11;;;;;;;13.23;3.25;;;14.90;99.90;;;;;;5110032;28;20136;-73
2022/10/22 04:23:36;;;;;;;16.13;3.45;;;14.90;99.90;;;;;;5109158;28;20574;-74
2022/10/22 04:26:08;;;;;;;14.27;2.97;;;14.90;99.90;;;;;;5096282;28;20102;-73
2022/10/22 04:28:34;;;;;;;11.73;2.92;;;14.90;99.90;;;;;;5110674;28;20076;-73
2022/10/22 04:31:05;;;;;;;13.98;3.20;;;14.90;99.90;;;;;;5109055;28;20016;-75
2022/10/22 04:33:31;;;;;;;9.25;2.90;;;14.90;99.90;;;;;;5114290;28;20024;-73
2022/10/22 04:35:56;;;;;;;9.93;3.30;;;14.90;99.90;;;;;;5112616;28;20026;-74
2022/10/22 04:38:22;;;;;;;13.07;2.80;;;14.90;99.90;;;;;;5095493;28;20027;-74
2022/10/22 04:40:47;;;;;;;14.48;3.30;;;14.90;99.90;;;;;;5077074;28;20047;-74
2022/10/22 04:43:13;;;;;;;15.70;3.50;;;14.90;99.90;;;;;;5102438;28;20069;-73
2022/10/22 04:45:39;;;;;;;14.52;3.22;;;14.90;99.90;;;;;;5112296;28;20023;-74
2022/10/22 04:48:05;;;;;;;11.63;3.30;;;14.80;99.90;;;;;;5114496;28;20031;-73
2022/10/22 04:50:30;;;;;;;17.00;3.30;;;14.80;99.90;;;;;;5113794;28;20051;-73
2022/10/22 04:52:56;;;;;;;11.95;2.90;;;14.80;99.90;;;;;;5099238;28;20076;-74
2022/10/22 04:55:21;;;;;;;13.57;3.30;;;14.80;99.90;;;;;;5111678;28;20488;-74
2022/10/22 04:57:47;;;;;;;10.65;3.15;;;14.70;99.90;;;;;;5108339;28;20090;-74
2022/10/22 05:00:13;;;;;;;12.10;3.10;;;14.70;99.90;;;;;;5101913;28;20027;-73
2022/10/22 05:02:38;;;;;;;21.02;3.67;;;14.70;99.90;;;;;;5110783;28;20554;-73
2022/10/22 05:05:04;;;;;;;15.10;3.50;;;14.60;99.90;;;;;;5092678;28;20024;-72
2022/10/22 05:07:29;;;;;;;14.80;3.70;;;14.60;99.90;;;;;;5092686;28;20447;-72
2022/10/22 05:09:55;;;;;;;19.75;3.58;;;14.60;99.90;;;;;;5096405;28;20459;-72
2022/10/22 05:12:20;;;;;;;16.90;3.15;;;14.60;99.90;;;;;;5102237;28;20670;-72
2022/10/22 05:14:46;;;;;;;7.40;2.78;;;14.60;99.90;;;;;;5108722;28;20034;-72
2022/10/22 05:17:12;;;;;;;13.25;3.15;;;14.60;99.90;;;;;;5113001;28;20068;-73
2022/10/22 05:19:37;;;;;;;15.40;3.03;;;14.50;99.90;;;;;;5111862;28;20030;-73
2022/10/22 05:22:04;;;;;;;13.80;3.05;;;14.50;99.90;;;;;;5098897;28;20429;-72
2022/10/22 05:24:31;;;;;;;14.88;3.00;;;14.50;99.90;;;;;;5098265;28;20036;-72
2022/10/22 05:26:58;;;;;;;13.10;3.17;;;14.50;99.90;;;;;;5112944;28;20052;-72
2022/10/22 05:29:24;;;;;;;16.27;3.03;;;14.50;99.90;;;;;;5107596;28;20066;-73
2022/10/22 05:31:50;;;;;;;8.48;2.83;;;14.60;99.90;;;;;;5082101;28;20024;-73
2022/10/22 05:34:16;;;;;;;15.07;3.15;;;14.60;99.90;;;;;;5112435;28;20027;-73
2022/10/22 05:36:43;;;;;;;14.38;3.20;;;14.60;99.90;;;;;;5100978;28;20036;-73
2022/10/22 05:39:08;;;;;;;15.02;3.03;;;14.60;99.90;;;;;;5110080;28;20102;-73
2022/10/22 05:41:34;;;;;;;17.25;3.55;;;14.70;99.90;;;;;;5112902;28;20166;-73
2022/10/22 05:44:01;;;;;;;14.63;2.83;;;14.70;99.90;;;;;;5099216;28;20030;-73
2022/10/22 05:46:29;;;;;;;15.63;3.50;;;14.70;99.90;;;;;;5106437;28;20122;-72
2022/10/22 05:48:58;;;;;;;15.48;3.40;;;14.70;99.90;;;;;;5097550;28;20031;-73
2022/10/22 05:51:24;;;;;;;15.45;3.58;;;14.70;99.90;;;;;;5107209;28;20489;-73
2022/10/22 05:53:57;;;;;;;16.90;3.40;;;14.70;99.90;;;;;;5079575;28;20034;-73
2022/10/22 05:56:24;;;;;;;13.00;3.22;;;14.70;99.90;;;;;;5107373;28;20034;-73
2022/10/22 05:58:49;;;;;;;17.40;3.55;;;14.70;99.90;;;;;;5111626;28;20471;-73
2022/10/22 06:01:19;;;;;;;15.18;3.42;;;14.70;99.90;;;;;;5097420;28;20023;-73
2022/10/22 06:03:46;;;;;;;14.45;3.00;;;14.70;99.90;;;;;;5107917;28;20032;-73
2022/10/22 06:06:36;;;;;;;16.50;3.10;;;14.70;99.90;;;;;;5104132;28;20104;-72
2022/10/22 06:09:15;;;;;;;13.13;3.67;;;14.70;99.90;;;;;;5092180;28;20063;-72
2022/10/22 06:11:41;;;;;;;13.52;2.90;;;14.70;99.90;;;;;;5106879;28;20047;-72
2022/10/22 06:14:08;;;;;;;18.08;2.92;;;14.70;99.90;;;;;;5111421;27;20024;-72
2022/10/22 06:16:33;;;;;;;16.15;3.00;;;14.70;99.90;;;;;;5096787;28;20150;-72
2022/10/22 06:19:00;;;;;;;16.02;3.40;;;14.70;99.90;;;;;;5105814;28;20535;-72
2022/10/22 06:21:26;;;;;;;14.18;3.05;;;14.80;99.90;;;;;;5088528;28;20274;-72
2022/10/22 06:23:55;;;;;;;10.65;2.95;;;14.80;99.90;;;;;;5104903;28;20028;-72
2022/10/22 06:26:20;;;;;;;18.60;3.00;;;14.80;99.90;;;;;;5079220;28;20017;-72
2022/10/22 06:28:46;;;;;;;12.02;2.75;;;14.90;99.90;;;;;;5091204;28;20446;-72
2022/10/22 06:31:11;;;;;;;9.10;2.50;;;14.90;99.90;;;;;;5105064;28;20490;-73
2022/10/22 06:33:41;;;;;;;22.60;3.03;;;14.90;99.90;;;;;;5106875;28;20045;-72
2022/10/22 06:36:18;;;;;;;12.60;2.67;;;14.90;99.90;;;;;;5091460;28;20016;-72
2022/10/22 06:38:44;;;;;;;18.63;3.00;;;15.00;99.90;;;;;;5106092;28;20024;-72
2022/10/22 06:41:14;;;;;;;14.68;2.75;;;15.00;99.90;;;;;;5107254;28;20472;-71
2022/10/22 06:43:44;;;;;;;15.35;3.10;;;15.00;99.90;;;;;;5105258;28;20096;-71
2022/10/22 06:46:10;;;;;;;16.20;2.70;;;15.00;99.90;;;;;;5108105;28;20032;-75
2022/10/22 06:48:36;;;;;;;18.15;2.58;;;15.10;99.90;;;;;;5093693;28;20030;-71
2022/10/22 06:51:07;;;;;;;16.45;2.67;;;15.10;99.90;;;;;;5107856;28;20508;-72
2022/10/22 06:53:34;;;;;;;19.90;2.65;;;15.10;99.90;;;;;;5092855;28;20031;-72
2022/10/22 06:56:11;;;;;;;14.70;2.88;;;15.10;99.90;;;;;;5100741;28;20475;-72
2022/10/22 06:58:37;;;;;;;15.93;2.80;;;15.20;99.90;;;;;;5107711;28;20514;-73
2022/10/22 07:01:09;;;;;;;10.70;2.70;;;15.20;99.90;;;;;;5108358;28;20019;-72
2022/10/22 07:03:34;;;;;;;15.05;2.40;;;15.20;99.90;;;;;;5087773;28;20399;-74
2022/10/22 07:06:03;;;;;;;12.68;2.45;;;15.20;99.90;;;;;;5108121;28;20023;-72
2022/10/22 07:08:29;;;;;;;15.75;2.70;;;15.20;99.90;;;;;;5104478;28;20476;-71
2022/10/22 07:10:55;;;;;;;14.88;2.50;;;15.20;99.90;;;;;;5108417;28;20518;-72
2022/10/22 07:13:21;;;;;;;11.23;2.10;;;15.20;99.90;;;;;;5087056;28;20069;-71
2022/10/22 07:15:53;;;;;;;11.77;2.40;;;15.30;99.90;;;;;;5108832;28;20387;-71
2022/10/22 07:18:20;;;;;;;13.88;2.30;;;15.30;99.90;;;;;;5107684;28;20430;-71
2022/10/22 07:20:47;;;;;;;14.82;2.78;;;15.20;99.90;;;;;;5107389;28;20019;-71
2022/10/22 07:23:13;;;;;;;17.33;2.55;;;15.20;99.90;;;;;;5089691;28;20030;-71
2022/10/22 07:25:39;;;;;;;13.98;2.30;;;15.20;99.90;;;;;;5107550;28;20032;-71
2022/10/22 07:28:05;;;;;;;17.08;2.80;;;15.20;99.90;;;;;;5109437;28;20027;-71
2022/10/22 07:30:30;;;;;;;15.02;2.63;;;15.20;99.90;;;;;;5109315;28;20022;-71
2022/10/22 07:32:56;;;;;;;13.68;2.45;;;15.10;99.90;;;;;;5107154;28;20463;-70
2022/10/22 07:35:21;;;;;;;17.50;3.40;;;15.20;99.90;;;;;;5106250;28;20031;-71
2022/10/22 07:37:47;;;;;;;10.82;2.42;;;15.20;99.90;;;;;;5096553;28;20031;-71
2022/10/22 07:40:12;;;;;;;12.18;2.33;;;15.20;99.90;;;;;;5092327;28;20019;-70
2022/10/22 07:42:38;;;;;;;17.98;2.75;;;15.30;99.90;;;;;;5090777;28;20073;-71
2022/10/22 07:45:04;;;;;;;16.40;2.50;;;15.30;99.90;;;;;;5099192;28;20104;-72
2022/10/22 07:47:30;;;;;;;14.38;2.63;;;15.30;99.90;;;;;;5077946;28;20035;-70
2022/10/22 07:49:55;;;;;;;17.05;2.75;;;15.30;99.90;;;;;;5080117;28;20483;-70
2022/10/22 07:52:21;;;;;;;13.32;2.60;;;15.30;99.90;;;;;;5108674;28;20024;-71
2022/10/22 07:54:46;;;;;;;19.00;2.40;;;15.40;99.90;;;;;;5103685;28;20506;-71
2022/10/22 07:57:12;;;;;;;18.17;3.00;;;15.40;99.90;;;;;;5090432;28;20069;-71
2022/10/22 07:59:37;;;;;;;13.63;3.13;;;15.40;99.90;;;;;;5104139;28;20477;-72
2022/10/22 08:02:03;;;;;;;14.57;2.40;;;15.40;99.90;;;;;;5099537;28;20015;-71
2022/10/22 08:04:28;;;;;;;13.05;2.70;;;15.40;99.90;;;;;;5077766;28;20024;-70
2022/10/22 08:06:57;;;;;;;13.05;2.80;;;15.40;99.90;;;;;;5105355;28;20025;-71
2022/10/22 08:09:23;;;;;;;15.35;2.80;;;15.40;99.90;;;;;;5094744;28;20026;-71
2022/10/22 08:11:49;;;;;;;11.27;2.70;;;15.40;99.90;;;;;;5094809;28;20028;-71
2022/10/22 08:14:15;;;;;;;18.83;2.80;;;15.40;99.90;;;;;;5103440;28;20028;-71
2022/10/22 08:16:40;;;;;;;14.48;2.78;;;15.40;99.90;;;;;;5113717;28;20379;-70
2022/10/22 08:19:06;;;;;;;13.52;2.83;;;15.40;99.90;;;;;;5099443;28;20032;-70
2022/10/22 08:21:32;;;;;;;21.33;3.03;;;15.40;99.90;;;;;;5102633;28;20062;-71
2022/10/22 08:23:57;;;;;;;14.75;2.90;;;15.40;99.90;;;;;;5107238;28;20073;-70
2022/10/22 08:26:23;;;;;;;10.60;2.70;;;15.40;99.90;;;;;;5098406;28;20024;-71
2022/10/22 08:28:48;;;;;;;14.52;2.90;;;15.30;99.90;;;;;;5110565;28;20509;-71
2022/10/22 08:31:14;;;;;;;14.52;2.90;;;15.40;99.90;;;;;;5099126;28;20064;-71
2022/10/22 08:33:40;;;;;;;16.50;3.00;;;15.40;99.90;;;;;;5096637;28;20090;-71
2022/10/22 08:36:07;;;;;;;11.70;2.40;;;15.40;99.90;;;;;;5114589;28;20043;-71
2022/10/22 08:38:34;;;;;;;13.55;3.10;;;15.50;99.90;;;;;;5115198;28;20030;-71
2022/10/22 08:41:11;;;;;;;13.85;2.40;;;15.50;99.90;;;;;;5096367;28;20054;-70
2022/10/22 08:43:46;;;;;;;15.43;3.03;;;15.50;99.90;;;;;;5113332;28;20028;-71
2022/10/22 08:46:23;;;;;;;15.93;3.00;;;15.60;99.90;;;;;;5107117;28;20476;-71
2022/10/22 08:48:55;;;;;;;15.90;3.05;;;15.60;99.90;;;;;;5106811;28;20439;-71
2022/10/22 08:51:25;;;;;;;16.33;2.95;;;15.70;99.90;;;;;;5098533;28;20120;-72
2022/10/22 08:53:59;;;;;;;14.20;3.08;;;15.70;99.90;;;;;;5112400;28;20020;-71
2022/10/22 08:56:25;;;;;;;14.88;2.95;;;15.80;99.90;;;;;;5087461;28;20028;-71
2022/10/22 08:58:54;;;;;;;16.98;3.35;;;15.80;99.90;;;;;;5092357;28;20024;-71
2022/10/22 09:01:42;;;;;;;14.93;3.22;;;15.90;99.90;;;;;;5106203;28;20028;-71
2022/10/22 09:04:29;;;;;;;12.85;2.92;;;15.90;99.90;;;;;;5092468;28;20020;-71
2022/10/22 09:06:58;;;;;;;12.25;2.88;;;16.00;99.90;;;;;;5092988;28;20036;-71
2022/10/22 09:09:30;;;;;;;13.32;2.95;;;16.00;99.90;;;;;;5107077;28;20472;-70
2022/10/22 09:11:58;;;;;;;11.55;2.60;;;16.10;99.90;;;;;;5105740;28;20210;-70
2022/10/22 09:14:24;;;;;;;13.50;3.00;;;16.20;99.90;;;;;;5092821;28;20099;-71
2022/10/22 09:17:08;;;;;;;13.63;2.38;;;16.30;99.90;;;;;;5097930;28;20020;-70
2022/10/22 09:19:40;;;;;;;13.80;2.83;;;16.30;99.90;;;;;;5097730;28;20517;-71
2022/10/22 09:22:33;;;;;;;13.25;2.40;;;16.40;99.90;;;;;;5074790;28;20129;-71
2022/10/22 09:25:32;;;;;;;14.40;2.63;;;16.50;99.90;;;;;;5109386;28;20368;-71
2022/10/22 09:27:57;;;;;;;9.55;2.30;;;16.50;99.90;;;;;;5099927;28;20030;-71
2022/10/22 09:30:27;;;;;;;17.08;2.60;;;16.50;99.90;;;;;;5094221;28;20024;-70
2022/10/22 09:33:14;;;;;;;16.50;2.35;;;16.50;99.90;;;;;;5094788;28;20361;-71
2022/10/22 09:35:58;;;;;;;15.57;2.50;;;16.60;99.90;;;;;;5108841;28;20043;-70
2022/10/22 09:38:31;;;;;;;14.00;2.80;;;16.60;99.90;;;;;;5092555;28;20028;-70
2022/10/22 09:40:59;;;;;;;17.25;2.90;;;16.60;99.90;;;;;;5092165;28;20060;-70
2022/10/22 09:43:25;;;;;;;15.52;2.67;;;16.70;99.90;;;;;;5091791;28;20027;-70
2022/10/22 09:46:03;;;;;;;13.40;2.47;;;16.80;99.90;;;;;;5105454;28;20015;-71
2022/10/22 09:48:41;;;;;;;11.38;2.42;;;16.90;99.90;;;;;;5092058;28;20036;-71
2022/10/22 09:51:20;;;;;;;16.85;2.78;;;17.00;99.90;;;;;;5091963;28;20040;-71
2022/10/22 09:53:58;;;;;;;20.15;2.90;;;17.10;99.90;;;;;;5096065;28;20028;-71
2022/10/22 09:56:38;;;;;;;14.65;2.38;;;17.20;99.90;;;;;;5089412;28;20036;-72
2022/10/22 09:59:03;;;;;;;18.83;2.63;;;17.30;99.90;;;;;;5106088;28;20499;-70
2022/10/22 10:01:37;;;;;;;13.40;2.60;;;17.30;99.90;;;;;;5117523;28;20055;-72
2022/10/22 10:04:06;;;;;;;20.85;2.58;;;17.40;99.90;;;;;;5114269;28;20032;-72
2022/10/22 10:06:33;;;;;;;14.02;2.47;;;17.40;99.90;;;;;;5113353;28;20015;-72
2022/10/22 10:09:02;;;;;;;12.48;2.33;;;17.50;99.90;;;;;;5103579;28;20021;-70
2022/10/22 10:11:52;;;;;;;21.98;2.50;;;17.50;99.90;;;;;;5096287;28;20012;-72
2022/10/22 10:14:36;;;;;;;19.52;2.58;;;17.60;99.90;;;;;;5099509;28;20130;-71
2022/10/22 10:17:10;;;;;;;15.25;2.55;;;17.70;99.90;;;;;;5101560;28;20034;-70
2022/10/22 10:20:13;;;;;;;15.95;2.83;;;17.80;99.90;;;;;;5090135;28;20024;-70
2022/10/22 10:23:07;;;;;;;14.93;2.65;;;17.80;99.90;;;;;;5103712;28;20055;-70
2022/10/22 10:26:02;;;;;;;13.35;2.30;;;17.80;99.90;;;;;;5087908;28;20482;-70
2022/10/22 10:28:43;;;;;;;15.73;2.08;;;17.90;99.90;;;;;;5112323;28;20039;-71
2022/10/22 10:31:38;;;;;;;13.18;2.10;;;17.90;99.90;;;;;;5111457;28;20016;-70
2022/10/22 10:34:41;;;;;;;18.63;3.08;;;17.90;99.90;;;;;;5097393;28;20027;-68
2022/10/22 10:37:16;;;;;;;16.17;2.53;;;17.90;99.90;;;;;;5109734;28;20028;-69
2022/10/22 10:39:48;;;;;;;;;;;17.90;99.90;;;;;;5100559;28;20316;-70
2022/10/22 10:42:24;;;;;;;17.58;2.53;;;17.80;99.90;;;;;;5109175;28;19907;-71
2022/10/22 10:44:59;;;;;;;17.08;2.60;;;17.90;99.90;;;;;;5081860;28;20391;-70
2022/10/22 10:47:50;;;;;;;19.38;2.95;;;17.90;99.90;;;;;;5111166;28;20031;-70
2022/10/22 10:50:15;;;;;;;18.08;2.67;;;17.90;99.90;;;;;;5111324;28;20051;-70
2022/10/22 10:53:35;;;;;;;16.67;2.60;;;17.90;99.90;;;;;;5106962;28;20109;-71
2022/10/22 10:56:57;;;;;;;17.20;2.40;;;17.90;99.90;;;;;;5104366;28;20088;-71
2022/10/22 10:59:40;;;;;;;18.52;2.67;;;17.90;99.90;;;;;;5055385;28;20036;-70
2022/10/22 11:02:38;;;;;;;22.58;2.80;;;18.00;99.90;;;;;;5090836;28;20494;-70
2022/10/22 11:05:48;;;;;;;17.33;2.45;;;18.10;99.90;;;;;;5098009;28;20443;-72
2022/10/22 11:08:29;;;;;;;19.60;2.53;;;18.10;99.90;;;;;;5022253;28;20065;-70
2022/10/22 11:11:05;;;;;;;18.80;2.78;;;18.00;99.90;;;;;;5021161;28;20108;-70
2022/10/22 11:13:43;;;;;;;16.38;2.88;;;17.90;99.90;;;;;;5014497;28;20406;-70
2022/10/22 11:16:22;;;;;;;26.80;3.42;;;17.80;99.90;;;;;;5026925;28;20394;-71
2022/10/22 11:19:29;;;;;;;11.65;2.60;;;17.80;99.90;;;;;;5019855;28;20052;-70
2022/10/22 11:22:05;;;;;;;18.65;3.10;;;17.80;99.90;;;;;;5006610;28;20034;-72
2022/10/22 11:24:36;;;;;;;19.65;3.20;;;17.80;99.90;;;;;;5008137;28;20034;-70
2022/10/22 11:27:05;;;;;;;21.17;3.20;;;17.80;99.90;;;;;;5007111;28;20128;-72
2022/10/22 11:29:39;;;;;;;19.92;2.72;;;17.70;99.90;;;;;;5007233;28;20030;-72
2022/10/22 11:32:11;;;;;;;15.43;2.70;;;17.70;99.90;;;;;;5007616;28;20046;-72
2022/10/22 11:34:42;;;;;;;18.70;2.75;;;17.70;99.90;;;;;;5008593;28;20519;-72
2022/10/22 11:37:10;;;;;;;17.95;2.60;;;17.70;99.90;;;;;;5009107;28;20080;-72
2022/10/22 11:39:52;;;;;;;17.25;2.67;;;17.70;99.90;;;;;;5051829;28;20089;-71
2022/10/22 11:42:30;;;;;;;15.57;2.85;;;17.80;99.90;;;;;;5086654;28;20175;-71
2022/10/22 11:45:03;;;;;;;18.80;3.17;;;17.80;99.90;;;;;;5078314;28;20036;-72
2022/10/22 11:47:40;;;;;;;18.27;2.75;;;17.80;99.90;;;;;;5085823;28;20036;-72
2022/10/22 11:50:27;;;;;;;22.33;2.83;;;17.90;99.90;;;;;;5078304;28;20048;-72
2022/10/22 11:53:06;;;;;;;21.23;3.00;;;17.80;99.90;;;;;;5074592;28;20056;-72
2022/10/22 11:55:44;;;;;;;22.83;3.00;;;17.90;99.90;;;;;;5089062;28;20238;-71
2022/10/22 11:58:31;;;;;;;18.92;2.88;;;17.80;99.90;;;;;;5081884;28;20467;-72
2022/10/22 12:01:08;;;;;;;16.02;3.05;;;17.90;99.90;;;;;;5097147;28;20024;-72
2022/10/22 12:03:39;;;;;;;16.15;2.92;;;17.90;99.90;;;;;;5111119;28;20043;-71
2022/10/22 12:06:11;;;;;;;17.45;3.47;;;18.00;99.90;;;;;;5095332;28;20383;-73
2022/10/22 12:08:50;;;;;;;16.25;3.13;;;18.00;99.90;;;;;;5080956;28;20922;-71
2022/10/22 12:11:21;;;;;;;21.23;3.58;;;18.10;99.90;;;;;;5094953;28;20024;-70
2022/10/22 12:14:14;;;;;;;23.00;3.35;;;18.30;99.90;;;;;;5082494;28;20110;-73
2022/10/22 12:16:45;;;;;;;24.52;3.63;;;18.50;99.90;;;;;;5091637;28;20029;-72
2022/10/22 12:19:15;;;;;;;17.52;3.08;;;18.40;99.90;;;;;;5102693;28;20102;-72
2022/10/22 12:21:47;;;;;;;16.58;2.75;;;18.50;99.90;;;;;;5092982;28;20019;-72
2022/10/22 12:24:17;;;;;;;21.50;3.13;;;18.50;99.90;;;;;;5082020;28;20028;-72
2022/10/22 12:26:44;;;;;;;15.35;2.78;;;18.60;99.90;;;;;;5079608;28;20039;-72
2022/10/22 12:29:13;;;;;;;17.83;2.78;;;18.70;99.90;;;;;;5092932;28;20471;-71
2022/10/22 12:31:43;;;;;;;21.60;2.78;;;18.70;99.90;;;;;;5102280;28;20036;-71
2022/10/22 12:34:14;;;;;;;30.85;3.90;;;18.80;99.90;;;;;;5090999;28;20026;-72
2022/10/22 12:36:40;;;;;;;13.55;2.67;;;18.80;99.90;;;;;;5100160;28;20031;-72
2022/10/22 12:39:15;;;;;;;19.42;2.97;;;18.90;99.90;;;;;;5089804;28;20016;-71
2022/10/22 12:41:41;;;;;;;19.45;3.50;;;18.90;99.90;;;;;;5097013;28;20027;-71
2022/10/22 12:44:14;;;;;;;18.80;3.38;;;18.90;99.90;;;;;;5106604;28;20034;-72
2022/10/22 12:46:41;;;;;;;13.88;3.47;;;18.90;99.90;;;;;;5093211;28;20027;-74
2022/10/22 12:49:21;;;;;;;18.70;3.15;;;18.90;99.90;;;;;;5106935;28;20636;-71
2022/10/22 12:51:48;;;;;;;15.68;2.85;;;18.90;99.90;;;;;;5105353;28;20040;-71
2022/10/22 12:54:24;;;;;;;15.73;2.60;;;18.90;99.90;;;;;;5108642;28;20076;-72
2022/10/22 12:56:51;;;;;;;18.77;2.70;;;18.80;99.90;;;;;;5095901;28;20015;-72
2022/10/22 12:59:24;;;;;;;17.88;3.33;;;18.70;99.90;;;;;;5113604;28;20479;-72